Time;durP1;ratioP1;P1;durP2;ratioP2;P2;SDS_P1;SDS_P2;PMS_P1;PMS_P2;Temp;Humidity;BMP_temperature;BMP_pressure;BME280_temperature;BME280_humidity;BME280_pressure;Samples;Min_cycle;Max_cycle;Signal;HPM_P1;HPM_P2
2023/03/29 00:00:25;;;;;;;0.30;0.30;;;;;;;5.29;67.21;95906.44;4371450;32;20292;-55
2023/03/29 00:02:51;;;;;;;0.30;0.30;;;;;;;5.37;67.39;95922.59;4382834;32;20222;-56
2023/03/29 00:05:21;;;;;;;0.60;0.60;;;;;;;5.44;66.86;95914.50;4369207;32;20256;-55
2023/03/29 00:07:47;;;;;;;0.37;0.37;;;;;;;5.71;65.99;95922.44;4381190;32;20211;-55
2023/03/29 00:10:12;;;;;;;0.30;0.30;;;;;;;5.47;67.36;95922.72;4386241;32;20284;-55
2023/03/29 00:12:39;;;;;;;0.33;0.33;;;;;;;5.64;66.38;95942.88;4373213;32;20193;-55
2023/03/29 00:15:06;;;;;;;0.60;0.60;;;;;;;5.63;66.01;95946.56;4387108;32;20252;-57
2023/03/29 00:17:31;;;;;;;0.20;0.20;;;;;;;5.46;66.90;95957.94;4385316;32;20284;-55
2023/03/29 00:19:57;;;;;;;0.77;0.77;;;;;;;5.70;66.44;95957.69;4389851;32;20371;-56
2023/03/29 00:22:23;;;;;;;0.37;0.37;;;;;;;5.46;67.22;95962.41;4386405;32;20238;-55
2023/03/29 00:24:52;;;;;;;0.20;0.20;;;;;;;5.31;68.29;95965.66;4389894;32;20230;-56
2023/03/29 00:27:18;;;;;;;0.20;0.20;;;;;;;5.30;68.49;95969.31;4388576;32;20279;-57
2023/03/29 00:29:44;;;;;;;0.30;0.30;;;;;;;5.37;68.57;95971.78;4377576;32;20288;-55
2023/03/29 00:32:09;;;;;;;0.30;0.30;;;;;;;5.54;68.43;95980.41;4383271;32;20226;-52
2023/03/29 00:34:35;;;;;;;0.03;0.03;;;;;;;5.43;69.56;95986.56;4389458;32;20184;-56
2023/03/29 00:37:01;;;;;;;0.10;0.10;;;;;;;5.74;70.15;95987.75;4379949;32;20236;-55
2023/03/29 00:39:27;;;;;;;0.20;0.20;;;;;;;5.75;70.87;95981.44;4374215;32;20244;-56
2023/03/29 00:41:53;;;;;;;0.60;0.60;;;;;;;5.77;72.36;95980.16;4382818;32;20276;-55
2023/03/29 00:44:52;;;;;;;0.40;0.40;;;;;;;5.68;74.04;95975.56;4385323;32;20251;-56
2023/03/29 00:47:21;;;;;;;0.10;0.10;;;;;;;5.51;76.50;95973.81;4372236;32;20256;-57
2023/03/29 00:49:48;;;;;;;0.20;0.20;;;;;;;5.67;77.55;95968.72;4389653;32;20283;-54
2023/03/29 00:52:14;;;;;;;0.20;0.20;;;;;;;5.73;78.21;95967.75;4390665;32;20280;-55
2023/03/29 00:54:43;;;;;;;0.23;0.20;;;;;;;5.72;77.72;95963.50;4373667;32;20334;-55
2023/03/29 00:57:10;;;;;;;0.57;0.10;;;;;;;5.59;78.77;95977.84;4373620;32;20284;-54
2023/03/29 00:59:38;;;;;;;0.27;0.27;;;;;;;5.53;79.29;95960.41;4380994;32;20272;-56
2023/03/29 01:02:05;;;;;;;0.30;0.30;;;;;;;5.59;79.07;95969.97;4386472;32;20280;-56
2023/03/29 01:04:40;;;;;;;0.17;0.17;;;;;;;5.64;79.13;95969.19;4370619;32;20310;-56
2023/03/29 01:07:20;;;;;;;0.00;0.00;;;;;;;5.36;80.95;95965.72;4386938;32;20291;-56
2023/03/29 01:09:50;;;;;;;0.20;0.20;;;;;;;5.20;82.48;95968.41;4372352;32;20403;-56
2023/03/29 01:12:21;;;;;;;0.30;0.30;;;;;;;5.18;83.93;95963.41;4390278;32;20276;-57
2023/03/29 01:14:55;;;;;;;0.20;0.20;;;;;;;5.25;84.94;95953.47;4386616;32;20288;-56
2023/03/29 01:17:20;;;;;;;0.20;0.20;;;;;;;5.29;85.65;95945.91;4389768;32;20295;-55
2023/03/29 01:19:57;;;;;;;0.13;0.13;;;;;;;5.25;85.67;95940.31;4390654;32;20303;-56
2023/03/29 01:23:01;;;;;;;0.20;0.20;;;;;;;5.16;86.76;95936.53;4371644;32;20192;-51
2023/03/29 01:25:57;;;;;;;0.13;0.13;;;;;;;5.27;87.21;95933.00;4385450;32;20385;-57
2023/03/29 01:28:28;;;;;;;0.00;0.00;;;;;;;5.14;87.98;95928.91;4376882;32;20333;-54
2023/03/29 01:31:07;;;;;;;0.53;0.53;;;;;;;5.15;88.16;95919.16;4389957;32;20284;-56
2023/03/29 01:33:39;;;;;;;0.30;0.30;;;;;;;5.02;89.05;95903.72;4375242;32;20276;-55
2023/03/29 01:36:26;;;;;;;0.53;0.40;;;;;;;5.11;88.73;95904.91;4388514;32;20280;-54
2023/03/29 01:39:05;;;;;;;0.20;0.20;;;;;;;5.14;89.04;95907.06;4390357;32;20298;-54
2023/03/29 01:42:04;;;;;;;0.10;0.10;;;;;;;5.23;89.36;95905.59;4386715;32;20302;-55
2023/03/29 01:44:38;;;;;;;0.33;0.33;;;;;;;5.27;89.02;95906.69;4373339;32;20323;-56
2023/03/29 01:47:24;;;;;;;0.27;0.27;;;;;;;5.12;89.17;95898.63;4378221;32;20279;-55
2023/03/29 01:50:26;;;;;;;0.20;0.20;;;;;;;5.30;88.84;95885.16;4392967;32;20369;-55
2023/03/29 01:53:10;;;;;;;0.20;0.20;;;;;;;5.37;88.72;95863.94;4384466;32;20347;-56
2023/03/29 01:55:39;;;;;;;0.27;0.27;;;;;;;5.41;88.45;95852.66;4384893;32;20265;-56
2023/03/29 01:58:08;;;;;;;0.10;0.10;;;;;;;5.51;88.46;95850.13;4375421;32;20367;-57
2023/03/29 02:00:35;;;;;;;0.00;0.00;;;;;;;5.60;88.27;95855.75;4393840;32;20284;-56
2023/03/29 02:03:06;;;;;;;0.60;0.60;;;;;;;5.71;87.34;95854.81;4390034;32;20297;-55
2023/03/29 02:05:33;;;;;;;0.63;0.63;;;;;;;5.59;87.73;95856.00;4391664;32;20272;-56
2023/03/29 02:08:00;;;;;;;0.00;0.00;;;;;;;5.79;86.83;95851.72;4380750;32;20287;-55
2023/03/29 02:10:26;;;;;;;0.00;0.00;;;;;;;5.73;86.97;95841.41;4372462;32;20289;-56
2023/03/29 02:12:52;;;;;;;0.00;0.00;;;;;;;5.74;86.89;95832.47;4372056;32;20279;-56
2023/03/29 02:15:19;;;;;;;0.10;0.10;;;;;;;5.73;86.73;95836.12;4393410;32;20280;-56
2023/03/29 02:17:46;;;;;;;0.00;0.00;;;;;;;5.86;86.01;95835.72;4391097;32;20193;-55
2023/03/29 02:20:13;;;;;;;0.00;0.00;;;;;;;5.90;86.56;95846.56;4373289;32;20279;-56
2023/03/29 02:23:01;;;;;;;0.00;0.00;;;;;;;5.65;86.87;95820.78;4385829;32;20272;-56
2023/03/29 02:25:27;;;;;;;0.20;0.20;;;;;;;5.70;86.91;95841.88;4373902;32;20271;-55
2023/03/29 02:27:53;;;;;;;0.13;0.13;;;;;;;5.77;86.49;95829.34;4390332;32;20289;-57
2023/03/29 02:30:20;;;;;;;0.10;0.10;;;;;;;5.78;86.91;95828.28;4387458;32;20196;-55
2023/03/29 02:32:55;;;;;;;0.03;0.03;;;;;;;5.61;87.22;95824.97;4386419;32;20296;-54
2023/03/29 02:35:33;;;;;;;0.10;0.10;;;;;;;5.67;87.49;95821.34;4375686;32;20292;-55
2023/03/29 02:38:02;;;;;;;0.50;0.47;;;;;;;5.56;87.89;95814.41;4379987;32;20287;-57
2023/03/29 02:40:28;;;;;;;1.90;0.57;;;;;;;5.74;87.10;95817.47;4387498;32;20347;-55
2023/03/29 02:42:56;;;;;;;0.40;0.40;;;;;;;5.64;86.92;95806.03;4385896;32;20275;-54
2023/03/29 02:45:23;;;;;;;0.07;0.07;;;;;;;5.42;88.17;95801.63;4378659;32;20288;-55
2023/03/29 02:47:51;;;;;;;1.70;0.20;;;;;;;5.49;88.05;95799.59;4373450;32;20331;-54
2023/03/29 02:50:19;;;;;;;0.30;0.30;;;;;;;5.47;87.93;95806.94;4387400;32;20333;-56
2023/03/29 02:52:59;;;;;;;0.10;0.10;;;;;;;5.18;89.41;95787.19;4377728;32;20284;-56
2023/03/29 02:55:33;;;;;;;0.20;0.20;;;;;;;5.34;89.36;95786.31;4388124;32;20284;-57
2023/03/29 02:58:02;;;;;;;0.10;0.10;;;;;;;5.21;89.71;95791.94;4370892;32;20297;-54
2023/03/29 03:00:28;;;;;;;0.10;0.10;;;;;;;5.02;90.05;95791.47;4378984;32;20355;-54
2023/03/29 03:02:54;;;;;;;0.33;0.33;;;;;;;4.97;90.45;95788.03;4380363;32;20288;-54
2023/03/29 03:05:19;;;;;;;0.03;0.03;;;;;;;4.95;89.76;95772.50;4382838;32;20192;-55
2023/03/29 03:07:45;;;;;;;0.20;0.20;;;;;;;4.98;89.88;95781.72;4382994;32;20191;-54
2023/03/29 03:10:11;;;;;;;1.10;0.27;;;;;;;5.16;89.31;95774.31;4383241;32;20218;-55
2023/03/29 03:12:37;;;;;;;0.43;0.43;;;;;;;4.90;89.53;95774.28;4385695;32;20189;-55
2023/03/29 03:15:04;;;;;;;0.00;0.00;;;;;;;4.91;90.35;95778.47;4390152;32;20277;-53
2023/03/29 03:17:32;;;;;;;0.00;0.00;;;;;;;4.89;90.13;95772.69;4390005;32;20233;-56
2023/03/29 03:19:57;;;;;;;0.00;0.00;;;;;;;4.76;90.21;95764.13;4386515;32;20455;-56
2023/03/29 03:22:23;;;;;;;0.03;0.03;;;;;;;4.91;89.96;95770.59;4384764;32;20280;-55
2023/03/29 03:24:49;;;;;;;0.40;0.30;;;;;;;4.99;89.53;95763.06;4392522;32;20199;-56
2023/03/29 03:27:15;;;;;;;0.17;0.17;;;;;;;5.10;89.51;95758.72;4391734;32;20189;-54
2023/03/29 03:29:40;;;;;;;0.00;0.00;;;;;;;5.15;89.02;95756.13;4391415;32;20213;-54
2023/03/29 03:32:06;;;;;;;0.40;0.40;;;;;;;4.98;89.15;95744.94;4390235;32;20288;-56
2023/03/29 03:34:33;;;;;;;0.33;0.30;;;;;;;4.89;89.74;95749.03;4391853;32;20184;-54
2023/03/29 03:37:00;;;;;;;0.10;0.10;;;;;;;4.98;89.80;95748.34;4391803;32;20188;-54
2023/03/29 03:39:26;;;;;;;0.10;0.10;;;;;;;5.15;88.81;95741.16;4391028;32;20298;-55
2023/03/29 03:41:51;;;;;;;0.40;0.40;;;;;;;5.06;88.76;95731.31;4376688;32;20280;-55
2023/03/29 03:44:16;;;;;;;0.00;0.00;;;;;;;5.25;87.95;95737.81;4389910;32;20214;-54
2023/03/29 03:46:42;;;;;;;0.00;0.00;;;;;;;4.98;88.61;95731.78;4392183;32;20214;-56
2023/03/29 03:49:07;;;;;;;0.07;0.07;;;;;;;4.80;89.67;95728.41;4384649;32;20302;-55
2023/03/29 03:51:32;;;;;;;0.40;0.40;;;;;;;4.77;89.96;95722.88;4379986;32;20200;-55
2023/03/29 03:53:58;;;;;;;0.10;0.10;;;;;;;4.93;89.74;95721.22;4387302;32;20189;-54
2023/03/29 03:56:24;;;;;;;0.17;0.17;;;;;;;4.90;89.23;95706.72;4386495;32;20184;-54
2023/03/29 03:58:50;;;;;;;0.07;0.07;;;;;;;4.99;88.90;95702.59;4390599;32;20251;-55
2023/03/29 04:01:15;;;;;;;0.50;0.30;;;;;;;4.99;89.00;95701.81;4385903;32;20277;-54
2023/03/29 04:03:41;;;;;;;9.40;0.73;;;;;;;5.08;88.62;95710.84;4375438;32;20216;-56
2023/03/29 04:06:06;;;;;;;0.00;0.00;;;;;;;5.24;87.59;95702.03;4391079;32;20199;-56
2023/03/29 04:08:32;;;;;;;0.30;0.30;;;;;;;5.15;87.86;95695.66;4384909;32;20237;-56
2023/03/29 04:10:58;;;;;;;0.60;0.60;;;;;;;4.91;88.60;95686.50;4391704;32;20181;-54
2023/03/29 04:13:25;;;;;;;0.17;0.17;;;;;;;5.01;88.55;95691.81;4370912;32;20192;-53
2023/03/29 04:15:54;;;;;;;0.20;0.20;;;;;;;5.05;88.34;95682.41;4377474;32;20330;-54
2023/03/29 04:18:20;;;;;;;0.00;0.00;;;;;;;4.90;88.82;95685.69;4391182;32;20311;-54
2023/03/29 04:20:46;;;;;;;0.10;0.10;;;;;;;4.99;88.86;95697.34;4391187;32;20306;-55
2023/03/29 04:23:12;;;;;;;0.30;0.30;;;;;;;5.05;88.38;95698.19;4390899;32;20198;-55
2023/03/29 04:25:38;;;;;;;0.30;0.30;;;;;;;5.07;88.58;95690.84;4383462;32;20348;-56
2023/03/29 04:28:03;;;;;;;0.20;0.20;;;;;;;5.00;88.58;95687.63;4370725;32;20295;-53
2023/03/29 04:30:29;;;;;;;0.00;0.00;;;;;;;5.13;88.04;95682.75;4391443;32;20188;-56
2023/03/29 04:32:54;;;;;;;0.10;0.10;;;;;;;5.13;88.28;95680.13;4373640;32;20234;-55
2023/03/29 04:35:19;;;;;;;1.83;0.27;;;;;;;5.26;87.81;95684.16;4366617;32;20253;-55
2023/03/29 04:37:45;;;;;;;0.10;0.10;;;;;;;5.31;87.60;95675.53;4372037;32;20189;-53
2023/03/29 04:40:13;;;;;;;0.10;0.10;;;;;;;5.31;87.92;95665.81;4363085;32;20204;-57
2023/03/29 04:42:41;;;;;;;0.13;0.13;;;;;;;5.37;87.63;95675.34;4384157;32;20268;-57
2023/03/29 04:45:06;;;;;;;0.47;0.20;;;;;;;5.35;87.81;95666.91;4377650;32;20348;-55
2023/03/29 04:47:34;;;;;;;0.10;0.10;;;;;;;5.43;87.82;95663.78;4384915;32;20280;-55
2023/03/29 04:50:00;;;;;;;0.00;0.00;;;;;;;5.49;87.69;95670.69;4384678;32;20238;-56
2023/03/29 04:52:26;;;;;;;0.17;0.17;;;;;;;5.67;87.18;95666.84;4390490;32;20367;-56
2023/03/29 04:54:51;;;;;;;0.30;0.30;;;;;;;5.70;86.92;95678.72;4388755;32;20206;-53
2023/03/29 04:57:16;;;;;;;1.50;0.60;;;;;;;5.80;86.57;95668.25;4367447;32;20212;-54
2023/03/29 04:59:42;;;;;;;0.10;0.10;;;;;;;5.87;86.47;95666.97;4372103;32;20185;-57
2023/03/29 05:02:07;;;;;;;0.23;0.20;;;;;;;6.09;85.68;95660.81;4387813;32;20195;-56
2023/03/29 05:04:32;;;;;;;0.20;0.20;;;;;;;6.09;85.60;95660.81;4386677;32;20181;-55
2023/03/29 05:06:58;;;;;;;0.13;0.13;;;;;;;6.07;86.17;95653.16;4386729;32;20188;-52
2023/03/29 05:09:24;;;;;;;0.20;0.20;;;;;;;6.10;86.22;95652.66;4387868;32;20252;-55
2023/03/29 05:11:50;;;;;;;0.20;0.20;;;;;;;5.93;87.07;95645.97;4386358;32;20215;-57
2023/03/29 05:14:16;;;;;;;0.00;0.00;;;;;;;6.10;87.04;95647.38;4375065;32;20284;-56
2023/03/29 05:16:41;;;;;;;0.00;0.00;;;;;;;6.15;86.68;95665.84;4389214;32;20219;-54
2023/03/29 05:19:10;;;;;;;0.00;0.00;;;;;;;6.12;87.05;95661.09;4390305;32;20180;-57
2023/03/29 05:21:35;;;;;;;0.17;0.17;;;;;;;6.10;87.56;95657.13;4392690;32;20185;-53
2023/03/29 05:24:01;;;;;;;0.17;0.17;;;;;;;6.29;86.91;95657.47;4377454;32;20280;-55
2023/03/29 05:26:26;;;;;;;0.00;0.00;;;;;;;6.27;87.03;95646.38;4379343;32;20248;-58
2023/03/29 05:28:52;;;;;;;0.40;0.40;;;;;;;6.41;86.68;95658.06;4386329;32;20206;-57
2023/03/29 05:31:18;;;;;;;0.20;0.20;;;;;;;6.28;87.01;95659.31;4387980;32;20188;-49
2023/03/29 05:33:46;;;;;;;0.23;0.23;;;;;;;6.41;86.91;95658.84;4387904;32;20238;-47
2023/03/29 05:36:14;;;;;;;1.07;0.37;;;;;;;6.45;86.50;95640.66;4390058;32;20302;-47
2023/03/29 05:38:43;;;;;;;0.00;0.00;;;;;;;6.50;86.41;95643.31;4387877;32;20283;-47
2023/03/29 05:41:10;;;;;;;0.10;0.10;;;;;;;6.59;85.84;95654.94;4373416;32;20328;-50
2023/03/29 05:43:35;;;;;;;0.13;0.13;;;;;;;6.73;85.39;95660.50;4392818;32;20298;-47
2023/03/29 05:46:01;;;;;;;0.47;0.40;;;;;;;6.75;85.45;95663.69;4393026;32;20371;-49
2023/03/29 05:48:27;;;;;;;7.53;0.30;;;;;;;6.77;85.24;95665.00;4377800;32;20279;-49
2023/03/29 05:50:55;;;;;;;0.20;0.20;;;;;;;6.73;85.28;95656.03;4366527;32;20255;-47
2023/03/29 05:53:22;;;;;;;0.00;0.00;;;;;;;6.80;85.64;95664.50;4390545;32;20235;-48
2023/03/29 05:55:48;;;;;;;0.20;0.20;;;;;;;6.81;85.01;95660.00;4392880;32;20288;-47
2023/03/29 05:58:14;;;;;;;0.00;0.00;;;;;;;6.97;84.26;95666.88;4387167;32;20279;-52
2023/03/29 06:00:40;;;;;;;0.30;0.30;;;;;;;6.95;84.19;95663.72;4369567;32;20181;-49
2023/03/29 06:03:06;;;;;;;0.13;0.13;;;;;;;7.03;84.20;95667.69;4379192;32;20273;-48
2023/03/29 06:05:33;;;;;;;0.63;0.53;;;;;;;7.04;83.89;95658.72;4392565;32;20284;-48
2023/03/29 06:07:59;;;;;;;0.37;0.37;;;;;;;7.02;83.68;95663.47;4372808;32;20305;-50
2023/03/29 06:10:24;;;;;;;0.40;0.40;;;;;;;7.08;83.70;95657.91;4388739;32;20318;-45
2023/03/29 06:12:50;;;;;;;0.33;0.23;;;;;;;7.18;83.15;95657.94;4388399;32;20223;-51
2023/03/29 06:15:16;;;;;;;0.27;0.27;;;;;;;7.23;83.10;95657.16;4378769;32;20210;-48
2023/03/29 06:17:44;;;;;;;0.60;0.60;;;;;;;7.30;82.81;95659.50;4373157;32;20196;-51
2023/03/29 06:20:10;;;;;;;3.37;0.70;;;;;;;7.40;82.45;95652.41;4365369;32;20317;-48
2023/03/29 06:22:37;;;;;;;0.07;0.07;;;;;;;7.63;81.09;95653.72;4377788;32;20281;-47
2023/03/29 06:25:04;;;;;;;1.53;0.23;;;;;;;7.58;81.07;95654.50;4378760;32;20324;-48
2023/03/29 06:27:29;;;;;;;0.00;0.00;;;;;;;7.72;80.44;95662.66;4385159;32;20284;-50
2023/03/29 06:29:55;;;;;;;0.17;0.17;;;;;;;7.65;80.88;95677.22;4390795;32;20283;-49
2023/03/29 06:32:21;;;;;;;0.37;0.13;;;;;;;7.56;81.18;95675.09;4390189;32;20192;-51
2023/03/29 06:34:46;;;;;;;0.20;0.20;;;;;;;7.75;80.82;95671.91;4388371;32;20259;-46
2023/03/29 06:37:11;;;;;;;0.20;0.20;;;;;;;7.73;80.09;95681.94;4385498;32;20207;-47
2023/03/29 06:39:37;;;;;;;0.57;0.57;;;;;;;7.75;80.61;95685.09;4388140;32;20231;-59
2023/03/29 06:42:02;;;;;;;3.63;1.57;;;;;;;7.75;80.47;95685.91;4385364;32;20180;-54
2023/03/29 06:44:27;;;;;;;1.80;0.30;;;;;;;9.90;100.00;95687.19;4382078;32;20191;-54
2023/03/29 06:46:53;;;;;;;0.30;0.20;;;;;;;10.70;100.00;95694.56;4361953;32;20238;-55
2023/03/29 06:49:19;;;;;;;0.30;0.30;;;;;;;11.00;90.51;95687.03;4379307;32;20193;-54
2023/03/29 06:51:44;;;;;;;0.50;0.50;;;;;;;11.96;82.54;95690.06;4377560;32;20200;-53
2023/03/29 06:54:10;;;;;;;0.00;0.00;;;;;;;12.27;76.48;95682.31;4378071;32;20247;-50
2023/03/29 06:56:35;;;;;;;2.07;0.27;;;;;;;12.81;73.71;95680.75;4374988;32;20256;-52
2023/03/29 06:59:01;;;;;;;0.60;0.47;;;;;;;12.01;65.66;95689.19;4380012;32;20185;-50
2023/03/29 07:01:27;;;;;;;0.00;0.00;;;;;;;11.28;65.90;95689.81;4378828;32;20268;-50
2023/03/29 07:03:53;;;;;;;0.20;0.20;;;;;;;10.22;68.77;95676.81;4372625;32;20185;-47
2023/03/29 07:06:19;;;;;;;0.10;0.10;;;;;;;10.09;69.89;95689.94;4381655;32;20210;-46
2023/03/29 07:08:48;;;;;;;0.37;0.37;;;;;;;9.39;73.26;95690.25;4380259;32;20203;-46
2023/03/29 07:11:15;;;;;;;0.33;0.33;;;;;;;8.92;74.58;95691.62;4370868;32;20180;-49
2023/03/29 07:13:43;;;;;;;0.20;0.20;;;;;;;8.99;78.68;95675.44;4380892;32;20247;-50
2023/03/29 07:16:13;;;;;;;4.30;0.90;;;;;;;9.13;75.14;95678.28;4388499;32;20184;-51
2023/03/29 07:18:42;;;;;;;0.20;0.20;;;;;;;9.01;75.35;95677.81;4386236;32;20288;-51
2023/03/29 07:21:09;;;;;;;0.57;0.40;;;;;;;8.98;75.58;95678.34;4388775;32;20201;-50
2023/03/29 07:23:35;;;;;;;1.73;0.63;;;;;;;9.16;75.44;95686.44;4393752;32;20272;-46
2023/03/29 07:26:01;;;;;;;0.23;0.23;;;;;;;9.39;75.15;95684.16;4373193;32;20356;-48
2023/03/29 07:28:26;;;;;;;0.63;0.20;;;;;;;9.41;74.27;95682.81;4388266;32;20188;-52
2023/03/29 07:30:52;;;;;;;0.00;0.00;;;;;;;9.51;74.56;95679.31;4380965;32;20334;-46
2023/03/29 07:33:17;;;;;;;2.47;0.50;;;;;;;9.68;74.31;95686.87;4384844;32;20250;-48
2023/03/29 07:35:46;;;;;;;0.63;0.63;;;;;;;9.72;74.42;95677.28;4374318;32;20200;-50
2023/03/29 07:38:14;;;;;;;0.23;0.23;;;;;;;9.84;72.80;95680.34;4388901;32;20215;-51
2023/03/29 07:40:40;;;;;;;0.03;0.03;;;;;;;9.99;71.70;95688.94;4374887;32;20345;-55
2023/03/29 07:43:07;;;;;;;11.80;0.73;;;;;;;10.42;79.73;95680.31;4391429;32;20184;-55
2023/03/29 07:45:33;;;;;;;1.40;0.57;;;;;;;13.29;80.09;95682.94;4369593;32;20232;-57
2023/03/29 07:47:58;;;;;;;0.20;0.20;;;;;;;15.22;72.70;95675.19;4388569;32;20207;-57
2023/03/29 07:50:24;;;;;;;0.33;0.33;;;;;;;15.95;62.56;95682.25;4380066;32;20188;-57
2023/03/29 07:52:50;;;;;;;0.97;0.53;;;;;;;16.22;64.29;95686.44;4372430;32;20196;-57
2023/03/29 07:55:16;;;;;;;0.20;0.20;;;;;;;16.45;61.79;95685.09;4372262;32;20218;-53
2023/03/29 07:57:42;;;;;;;0.13;0.13;;;;;;;15.00;52.74;95690.25;4389526;32;20203;-51
2023/03/29 08:00:15;;;;;;;0.17;0.17;;;;;;;13.33;55.50;95706.00;4383849;32;20184;-50
2023/03/29 08:02:42;;;;;;;0.47;0.43;;;;;;;12.01;60.41;95699.84;4369841;32;20236;-51
2023/03/29 08:05:09;;;;;;;1.60;0.50;;;;;;;11.03;63.10;95705.00;4388968;32;20264;-48
2023/03/29 08:07:34;;;;;;;0.83;0.40;;;;;;;10.90;64.50;95705.72;4389332;32;20189;-51
2023/03/29 08:09:59;;;;;;;1.30;0.53;;;;;;;10.85;66.89;95715.59;4388741;32;20195;-50
2023/03/29 08:12:25;;;;;;;0.47;0.47;;;;;;;10.61;67.47;95697.84;4390400;32;20181;-50
2023/03/29 08:14:50;;;;;;;0.40;0.30;;;;;;;10.60;66.54;95706.09;4385033;32;20235;-50
2023/03/29 08:17:15;;;;;;;0.00;0.00;;;;;;;10.76;66.96;95704.84;4391531;32;20195;-49
2023/03/29 08:19:41;;;;;;;0.30;0.30;;;;;;;10.70;67.08;95697.22;4389713;32;20184;-49
2023/03/29 08:22:06;;;;;;;0.37;0.37;;;;;;;10.53;66.58;95705.66;4392921;32;20214;-52
2023/03/29 08:24:32;;;;;;;0.23;0.23;;;;;;;10.36;67.28;95700.81;4382915;32;20185;-52
2023/03/29 08:26:57;;;;;;;0.00;0.00;;;;;;;10.46;67.27;95705.19;4387986;32;20231;-51
2023/03/29 08:29:23;;;;;;;1.07;0.63;;;;;;;10.59;67.97;95701.87;4384596;32;20216;-52
2023/03/29 08:31:48;;;;;;;0.10;0.10;;;;;;;10.35;68.12;95693.94;4391153;32;20282;-53
2023/03/29 08:34:13;;;;;;;6.43;0.37;;;;;;;10.44;67.88;95704.69;4388528;32;20197;-54
2023/03/29 08:36:39;;;;;;;0.30;0.30;;;;;;;10.63;67.10;95708.19;4383721;32;20184;-55
2023/03/29 08:39:04;;;;;;;0.87;0.40;;;;;;;10.44;66.81;95694.87;4392788;32;20223;-54
2023/03/29 08:42:01;;;;;;;0.60;0.60;;;;;;;10.38;67.73;95701.31;4388449;32;20203;-54
2023/03/29 08:44:41;;;;;;;0.50;0.50;;;;;;;10.51;70.73;95705.16;4390616;32;20176;-53
2023/03/29 08:47:24;;;;;;;0.10;0.10;;;;;;;10.42;68.98;95704.19;4382230;32;20223;-50
2023/03/29 08:49:53;;;;;;;0.00;0.00;;;;;;;10.23;67.78;95698.81;4372982;32;20189;-52
2023/03/29 08:52:55;;;;;;;0.40;0.40;;;;;;;10.30;68.02;95710.69;4374916;32;20229;-51
2023/03/29 08:55:30;;;;;;;0.00;0.00;;;;;;;10.32;67.60;95703.22;4370311;32;20207;-52
2023/03/29 08:57:58;;;;;;;0.10;0.10;;;;;;;10.57;68.69;95696.06;4362213;32;20235;-50
2023/03/29 09:00:39;;;;;;;0.10;0.10;;;;;;;10.64;67.07;95702.59;4377815;32;20181;-50
2023/03/29 09:03:15;;;;;;;0.20;0.20;;;;;;;10.67;67.45;95704.69;4379004;32;20180;-51
2023/03/29 09:05:46;;;;;;;0.30;0.30;;;;;;;10.73;68.71;95696.66;4363393;32;20180;-50
2023/03/29 09:08:16;;;;;;;0.20;0.20;;;;;;;10.71;67.37;95699.59;4356168;32;20223;-52
2023/03/29 09:10:46;;;;;;;0.20;0.20;;;;;;;11.00;67.14;95691.53;4389475;32;20274;-54
2023/03/29 09:13:34;;;;;;;0.37;0.30;;;;;;;10.85;67.56;95679.25;4367039;32;20231;-52
2023/03/29 09:16:15;;;;;;;2.57;0.47;;;;;;;10.86;67.13;95686.13;4385108;32;20199;-51
2023/03/29 09:18:55;;;;;;;1.17;0.80;;;;;;;10.81;66.77;95688.06;4388941;32;20239;-49
2023/03/29 09:21:40;;;;;;;0.83;0.43;;;;;;;10.85;66.66;95700.47;4383613;32;20196;-50
2023/03/29 09:24:30;;;;;;;0.17;0.17;;;;;;;10.84;66.84;95692.78;4384973;32;20180;-49
2023/03/29 09:27:09;;;;;;;0.30;0.30;;;;;;;10.98;66.46;95704.31;4382978;32;20173;-54
2023/03/29 09:29:59;;;;;;;0.47;0.47;;;;;;;11.02;66.31;95706.09;4372828;32;20188;-49
2023/03/29 09:32:33;;;;;;;0.37;0.37;;;;;;;11.08;65.97;95709.47;4371517;32;20207;-49
2023/03/29 09:35:17;;;;;;;2.23;0.40;;;;;;;11.16;67.08;95700.88;4388562;32;20198;-49
2023/03/29 09:37:44;;;;;;;0.70;0.70;;;;;;;11.12;65.52;95702.50;4385739;32;20196;-53
2023/03/29 09:40:16;;;;;;;0.10;0.10;;;;;;;11.37;66.06;95706.69;4387665;32;20208;-53
2023/03/29 09:42:43;;;;;;;0.30;0.30;;;;;;;11.36;65.17;95703.22;4389852;32;20220;-48
2023/03/29 09:45:09;;;;;;;0.30;0.30;;;;;;;11.41;65.18;95702.37;4368923;32;20260;-49
2023/03/29 09:47:58;;;;;;;0.63;0.53;;;;;;;11.34;65.44;95705.38;4372826;32;20188;-47
2023/03/29 09:50:34;;;;;;;0.30;0.30;;;;;;;11.28;65.72;95701.22;4374259;32;20176;-48
2023/03/29 09:53:00;;;;;;;3.90;0.60;;;;;;;11.31;65.30;95694.53;4389911;32;20188;-49
2023/03/29 09:55:29;;;;;;;0.20;0.20;;;;;;;11.36;64.91;95695.25;4373778;32;20207;-50
2023/03/29 09:57:59;;;;;;;0.20;0.20;;;;;;;11.41;64.26;95680.34;4377889;32;20199;-48
2023/03/29 10:00:24;;;;;;;0.23;0.23;;;;;;;11.35;63.68;95680.41;4385451;32;20192;-50
2023/03/29 10:02:51;;;;;;;0.00;0.00;;;;;;;11.50;64.08;95687.34;4368596;32;20215;-47
2023/03/29 10:05:17;;;;;;;0.37;0.37;;;;;;;11.75;64.49;95682.69;4385425;32;20212;-50
2023/03/29 10:07:56;;;;;;;0.30;0.30;;;;;;;11.95;63.01;95680.50;4392180;32;20212;-46
2023/03/29 10:10:27;;;;;;;0.10;0.10;;;;;;;11.98;62.98;95673.81;4393403;32;20242;-49
2023/03/29 10:12:58;;;;;;;0.73;0.73;;;;;;;11.97;62.20;95683.69;4369055;32;20200;-53
2023/03/29 10:15:27;;;;;;;0.30;0.30;;;;;;;11.88;61.86;95677.44;4386470;32;20213;-51
2023/03/29 10:17:58;;;;;;;0.63;0.57;;;;;;;12.11;61.98;95675.72;4385666;32;20193;-48
2023/03/29 10:20:24;;;;;;;4.10;0.43;;;;;;;11.96;62.23;95665.34;4392357;32;20302;-51
2023/03/29 10:22:56;;;;;;;1.00;0.50;;;;;;;11.92;62.38;95664.34;4391999;32;20193;-50
2023/03/29 10:25:27;;;;;;;0.30;0.30;;;;;;;12.28;62.14;95664.50;4382745;32;20288;-47
2023/03/29 10:28:01;;;;;;;0.40;0.10;;;;;;;12.33;61.11;95659.88;4390822;32;20196;-50
2023/03/29 10:30:27;;;;;;;0.87;0.70;;;;;;;12.51;60.55;95665.38;4373984;32;20258;-50
2023/03/29 10:32:58;;;;;;;0.10;0.10;;;;;;;12.33;60.73;95670.50;4388929;32;20192;-48
2023/03/29 10:35:39;;;;;;;3.27;0.73;;;;;;;12.51;61.33;95662.72;4384888;32;20185;-53
2023/03/29 10:38:10;;;;;;;0.30;0.30;;;;;;;12.40;60.62;95656.81;4392876;32;20217;-53
2023/03/29 10:40:47;;;;;;;0.83;0.50;;;;;;;12.42;60.46;95656.53;4384287;32;20184;-52
2023/03/29 10:43:15;;;;;;;0.37;0.37;;;;;;;12.41;60.29;95649.63;4389942;32;20192;-50
2023/03/29 10:45:42;;;;;;;0.17;0.17;;;;;;;12.42;59.24;95656.53;4376561;32;20260;-52
2023/03/29 10:48:15;;;;;;;0.20;0.20;;;;;;;12.48;59.81;95652.66;4394686;32;20189;-50
2023/03/29 10:50:41;;;;;;;0.40;0.40;;;;;;;12.39;59.96;95648.06;4382964;32;20184;-52
2023/03/29 10:53:21;;;;;;;0.30;0.30;;;;;;;12.52;59.69;95646.47;4392893;32;20204;-51
2023/03/29 10:56:06;;;;;;;0.23;0.23;;;;;;;12.53;60.74;95655.22;4387392;32;20202;-50
2023/03/29 10:58:45;;;;;;;0.23;0.23;;;;;;;12.74;59.66;95656.37;4385146;32;20219;-51
2023/03/29 11:01:20;;;;;;;1.80;0.60;;;;;;;12.76;59.65;95646.22;4382629;32;20200;-54
2023/03/29 11:04:07;;;;;;;2.40;0.40;;;;;;;12.60;58.16;95650.31;4383670;32;20193;-53
2023/03/29 11:06:51;;;;;;;2.07;0.60;;;;;;;12.75;57.38;95649.97;4385225;32;20172;-53
2023/03/29 11:09:36;;;;;;;0.33;0.33;;;;;;;12.82;56.81;95650.38;4360540;32;20193;-48
2023/03/29 11:12:38;;;;;;;0.27;0.27;;;;;;;12.81;55.37;95640.81;4383031;32;20211;-53
2023/03/29 11:15:10;;;;;;;0.20;0.20;;;;;;;12.63;55.75;95636.41;4388265;32;20189;-52
2023/03/29 11:17:35;;;;;;;0.27;0.27;;;;;;;12.65;55.92;95634.22;4386894;32;20189;-52
2023/03/29 11:20:16;;;;;;;0.40;0.23;;;;;;;12.84;55.60;95642.09;4385043;32;20215;-53
2023/03/29 11:23:08;;;;;;;0.00;0.00;;;;;;;13.02;55.55;95639.28;4369122;32;20248;-52
2023/03/29 11:26:16;;;;;;;0.63;0.53;;;;;;;13.09;54.79;95636.22;4370013;32;20224;-54
2023/03/29 11:28:56;;;;;;;7.43;0.40;;;;;;;13.21;55.80;95643.69;4347682;32;20307;-50
2023/03/29 11:31:25;;;;;;;0.27;0.27;;;;;;;13.23;54.56;95644.19;4385293;32;20304;-54
2023/03/29 11:34:13;;;;;;;0.23;0.23;;;;;;;13.37;52.90;95637.69;4380723;32;20184;-52
2023/03/29 11:36:58;;;;;;;0.83;0.73;;;;;;;13.33;53.00;95636.72;4375659;32;20199;-53
2023/03/29 11:39:29;;;;;;;1.93;0.57;;;;;;;13.26;52.29;95635.59;4383965;32;20188;-50
2023/03/29 11:42:01;;;;;;;0.27;0.17;;;;;;;13.29;52.41;95627.78;4389956;32;20189;-53
2023/03/29 11:44:30;;;;;;;0.20;0.20;;;;;;;13.23;52.52;95620.19;4384009;32;20180;-52
2023/03/29 11:47:02;;;;;;;0.20;0.20;;;;;;;13.35;53.35;95637.22;4384690;32;20219;-52
2023/03/29 11:49:42;;;;;;;0.40;0.40;;;;;;;13.39;53.04;95637.41;4381406;32;20290;-51
2023/03/29 11:52:17;;;;;;;0.70;0.70;;;;;;;13.41;52.84;95630.69;4370424;32;20200;-53